Time;durP1;ratioP1;P1;durP2;ratioP2;P2;SDS_P1;SDS_P2;PMS_P1;PMS_P2;Temp;Humidity;BMP_temperature;BMP_pressure;BME280_temperature;BME280_humidity;BME280_pressure;Samples;Min_cycle;Max_cycle;Signal;HPM_P1;HPM_P2
2023/04/03 00:01:04;;;;;;;5.73;5.33;;;;;;;-0.51;100.00;103423.97;5012570;28;20440;-48
2023/04/03 00:03:32;;;;;;;5.77;5.37;;;;;;;-0.54;100.00;103418.84;5011941;28;20568;-44
2023/04/03 00:06:00;;;;;;;5.50;5.10;;;;;;;-0.58;100.00;103413.72;5012394;28;20983;-45
2023/04/03 00:08:30;;;;;;;5.67;5.03;;;;;;;-0.62;100.00;103416.50;5012723;28;20531;-47
2023/04/03 00:10:58;;;;;;;6.13;5.67;;;;;;;-0.64;100.00;103419.19;5012485;28;21037;-45
2023/04/03 00:13:26;;;;;;;5.17;4.87;;;;;;;-0.68;100.00;103417.59;5011820;28;20480;-45
2023/04/03 00:15:54;;;;;;;6.20;5.60;;;;;;;-0.69;100.00;103421.13;5012403;28;20433;-46
2023/04/03 00:18:23;;;;;;;7.20;6.57;;;;;;;-0.72;100.00;103426.47;5012223;28;20469;-48
2023/04/03 00:20:51;;;;;;;6.77;6.17;;;;;;;-0.72;100.00;103420.41;5012163;28;20440;-45
2023/04/03 00:23:19;;;;;;;6.50;5.90;;;;;;;-0.75;100.00;103420.53;5011661;28;20531;-47
2023/04/03 00:25:46;;;;;;;6.63;6.03;;;;;;;-0.78;100.00;103412.78;5012220;28;20943;-45
2023/04/03 00:28:14;;;;;;;6.23;5.83;;;;;;;-0.79;100.00;103416.31;5012301;28;20440;-45
2023/04/03 00:30:42;;;;;;;5.73;5.33;;;;;;;-0.78;100.00;103418.03;5012179;28;20440;-48
2023/04/03 00:33:12;;;;;;;7.33;6.70;;;;;;;-0.81;100.00;103413.75;5011644;28;20822;-43
2023/04/03 00:35:41;;;;;;;5.90;5.50;;;;;;;-0.84;100.00;103419.13;5012282;28;20425;-48
2023/04/03 00:38:09;;;;;;;6.43;6.03;;;;;;;-0.84;100.00;103418.25;5011968;28;20475;-47
2023/04/03 00:40:42;;;;;;;6.57;5.90;;;;;;;-0.86;100.00;103420.91;5012163;28;20444;-45
2023/04/03 00:43:13;;;;;;;6.70;5.53;;;;;;;-0.87;100.00;103424.47;5011604;28;20472;-45
2023/04/03 00:45:43;;;;;;;7.00;6.20;;;;;;;-0.89;100.00;103428.03;5012050;28;20413;-44
2023/04/03 00:48:14;;;;;;;7.30;6.57;;;;;;;-0.94;100.00;103433.47;5012218;28;20915;-52
2023/04/03 00:50:45;;;;;;;11.67;8.10;;;;;;;-0.96;100.00;103432.66;5012014;28;20445;-47
2023/04/03 00:53:17;;;;;;;7.00;6.50;;;;;;;-0.97;100.00;103433.56;5011458;28;20820;-45
2023/04/03 00:55:47;;;;;;;6.80;6.30;;;;;;;-1.00;100.00;103435.44;5012232;28;20422;-45
2023/04/03 00:58:18;;;;;;;7.00;6.50;;;;;;;-1.01;100.00;103438.97;5011852;28;20484;-44
2023/04/03 01:00:51;;;;;;;6.00;5.70;;;;;;;-1.02;100.00;103440.75;5012074;28;20448;-50
2023/04/03 01:03:20;;;;;;;6.80;6.50;;;;;;;-1.03;100.00;103435.56;5010826;28;20834;-51
2023/04/03 01:05:49;;;;;;;8.87;6.80;;;;;;;-1.01;100.00;103438.97;5011786;28;20524;-47
2023/04/03 01:08:17;;;;;;;6.43;5.93;;;;;;;-1.01;100.00;103436.34;5012023;28;20768;-48
2023/04/03 01:10:44;;;;;;;7.60;6.30;;;;;;;-1.01;100.00;103431.09;5011258;28;20855;-46
2023/04/03 01:13:21;;;;;;;6.90;6.50;;;;;;;-1.04;100.00;103428.59;5011102;28;20826;-47
2023/04/03 01:15:49;;;;;;;7.23;6.47;;;;;;;-1.08;100.00;103433.13;5011627;28;20429;-47
2023/04/03 01:18:17;;;;;;;6.80;6.27;;;;;;;-1.11;100.00;103420.13;5011605;28;20986;-45
2023/04/03 01:21:10;;;;;;;7.27;6.50;;;;;;;-1.14;100.00;103428.97;5011539;28;20433;-46
2023/04/03 01:23:52;;;;;;;5.93;5.63;;;;;;;-1.17;100.00;103429.06;5011143;28;20468;-46
2023/04/03 01:26:20;;;;;;;6.17;5.77;;;;;;;-1.18;100.00;103429.13;5011721;28;20453;-47
2023/04/03 01:28:47;;;;;;;6.67;6.03;;;;;;;-1.21;100.00;103422.22;5011539;28;20930;-48
2023/04/03 01:31:21;;;;;;;10.03;8.60;;;;;;;-1.22;100.00;103423.13;5011458;28;20433;-44
2023/04/03 01:33:50;;;;;;;7.23;6.73;;;;;;;-1.24;100.00;103430.19;5014673;28;20491;-43
2023/04/03 01:36:20;;;;;;;7.50;7.20;;;;;;;-1.25;100.00;103420.63;5015407;28;20468;-48
2023/04/03 01:38:48;;;;;;;8.63;8.17;;;;;;;-1.26;100.00;103423.31;5015496;28;21018;-43
2023/04/03 01:41:16;;;;;;;10.43;9.63;;;;;;;-1.26;100.00;103426.78;5015283;28;20436;-46
2023/04/03 01:43:44;;;;;;;8.37;7.83;;;;;;;-1.24;100.00;103431.97;5014753;28;20839;-45
2023/04/03 01:46:12;;;;;;;8.37;7.87;;;;;;;-1.25;100.00;103438.94;5015012;28;20985;-45
2023/04/03 01:48:40;;;;;;;9.10;8.43;;;;;;;-1.25;100.00;103433.72;5015055;28;20429;-45
2023/04/03 01:51:10;;;;;;;9.37;8.73;;;;;;;-1.25;100.00;103431.09;5015044;28;20464;-49
2023/04/03 01:53:37;;;;;;;9.57;8.77;;;;;;;-1.26;100.00;103432.03;5014439;28;20464;-46
2023/04/03 01:56:06;;;;;;;8.67;8.10;;;;;;;-1.27;100.00;103434.69;5014949;28;20455;-48
2023/04/03 01:58:34;;;;;;;8.60;8.17;;;;;;;-1.29;100.00;103436.50;5014778;28;20847;-45
2023/04/03 02:01:02;;;;;;;8.57;8.03;;;;;;;-1.30;100.00;103435.66;5014962;28;20428;-46
2023/04/03 02:03:30;;;;;;;10.10;8.90;;;;;;;-1.34;100.00;103436.66;5014151;28;20449;-46
2023/04/03 02:05:59;;;;;;;8.37;7.87;;;;;;;-1.36;100.00;103443.72;5014859;28;20429;-45
2023/04/03 02:08:28;;;;;;;8.40;8.00;;;;;;;-1.37;100.00;103442.00;5014873;28;20433;-45
2023/04/03 02:10:56;;;;;;;9.50;8.80;;;;;;;-1.38;100.00;103440.31;5014705;28;20425;-47
2023/04/03 02:13:23;;;;;;;9.30;8.50;;;;;;;-1.40;100.00;103434.25;5013986;28;20501;-46
2023/04/03 02:15:51;;;;;;;7.97;7.67;;;;;;;-1.40;100.00;103441.25;5014648;28;20506;-45
2023/04/03 02:18:19;;;;;;;7.80;7.30;;;;;;;-1.40;100.00;103439.50;5014699;28;20480;-46
2023/04/03 02:20:47;;;;;;;8.70;8.10;;;;;;;-1.40;100.00;103436.88;5014668;28;20433;-47
2023/04/03 02:23:15;;;;;;;8.07;7.53;;;;;;;-1.39;100.00;103442.97;5013900;28;20487;-46
2023/04/03 02:25:44;;;;;;;9.60;8.90;;;;;;;-1.39;100.00;103442.97;5014549;28;20788;-46
2023/04/03 02:28:11;;;;;;;9.00;8.40;;;;;;;-1.40;100.00;103434.25;5014388;28;20448;-45
2023/04/03 02:30:39;;;;;;;8.17;7.77;;;;;;;-1.38;100.00;103434.22;5014376;28;20444;-45
2023/04/03 02:33:07;;;;;;;9.73;9.07;;;;;;;-1.34;100.00;103436.66;5013870;28;20839;-50
2023/04/03 02:35:35;;;;;;;9.67;9.07;;;;;;;-1.30;100.00;103438.28;5014320;28;20425;-48
2023/04/03 02:38:02;;;;;;;10.10;9.50;;;;;;;-1.26;100.00;103436.41;5014046;28;20961;-45
2023/04/03 02:40:30;;;;;;;9.10;8.33;;;;;;;-1.26;100.00;103434.66;5014243;28;20472;-47
2023/04/03 02:42:59;;;;;;;9.10;8.53;;;;;;;-1.29;100.00;103439.13;5013154;28;20492;-50
2023/04/03 02:45:26;;;;;;;9.40;8.70;;;;;;;-1.35;100.00;103442.81;5014183;28;20559;-45
2023/04/03 02:47:54;;;;;;;9.90;7.90;;;;;;;-1.41;100.00;103436.94;5013918;28;20461;-44
2023/04/03 02:50:22;;;;;;;8.10;7.60;;;;;;;-1.48;100.00;103427.59;5013868;28;20466;-46
2023/04/03 02:52:50;;;;;;;7.80;7.40;;;;;;;-1.54;100.00;103428.66;5013485;28;20453;-48
2023/04/03 02:55:18;;;;;;;8.03;7.53;;;;;;;-1.58;100.00;103421.81;5014192;28;20429;-46
2023/04/03 02:57:45;;;;;;;8.73;8.20;;;;;;;-1.60;100.00;103423.66;5013828;28;20456;-48
2023/04/03 03:00:15;;;;;;;8.30;7.70;;;;;;;-1.63;100.00;103425.50;5013831;28;20487;-46
2023/04/03 03:02:43;;;;;;;8.77;8.17;;;;;;;-1.67;100.00;103425.63;5013270;28;20484;-53
2023/04/03 03:05:11;;;;;;;8.00;7.30;;;;;;;-1.69;100.00;103423.97;5013724;28;20444;-45
2023/04/03 03:07:39;;;;;;;7.27;6.87;;;;;;;-1.72;100.00;103426.69;5013567;28;20978;-48
2023/04/03 03:10:07;;;;;;;9.97;9.00;;;;;;;-1.74;100.00;103431.13;5013748;28;20940;-47
2023/04/03 03:12:35;;;;;;;9.00;8.30;;;;;;;-1.74;100.00;103424.13;5012561;28;20472;-47
2023/04/03 03:15:03;;;;;;;10.10;9.30;;;;;;;-1.74;100.00;103428.50;5013466;28;20427;-44
2023/04/03 03:17:32;;;;;;;8.80;8.00;;;;;;;-1.74;100.00;103429.38;5013692;28;20484;-47
2023/04/03 03:19:59;;;;;;;8.70;8.10;;;;;;;-1.72;100.00;103431.91;5013607;28;20477;-46
2023/04/03 03:22:28;;;;;;;9.43;8.70;;;;;;;-1.74;100.00;103437.22;5012945;28;20465;-46
2023/04/03 03:24:58;;;;;;;8.70;8.07;;;;;;;-1.74;100.00;103437.22;5013345;28;20441;-48
2023/04/03 03:27:25;;;;;;;9.50;8.90;;;;;;;-1.77;100.00;103432.09;5013327;28;20975;-45
2023/04/03 03:29:53;;;;;;;10.67;9.70;;;;;;;-1.77;100.00;103439.06;5013081;28;20525;-46
2023/04/03 03:32:21;;;;;;;8.00;7.50;;;;;;;-1.80;100.00;103441.78;5012570;28;20465;-46
2023/04/03 03:34:50;;;;;;;8.60;8.20;;;;;;;-1.80;100.00;103436.56;5013461;28;20434;-50
2023/04/03 03:37:17;;;;;;;9.87;9.13;;;;;;;-1.82;100.00;103436.59;5012912;28;20580;-45
2023/04/03 03:39:45;;;;;;;9.27;8.67;;;;;;;-1.82;100.00;103435.72;5012947;28;20481;-46
2023/04/03 03:42:13;;;;;;;10.03;9.17;;;;;;;-1.83;100.00;103432.28;5012391;28;20464;-45
2023/04/03 03:44:40;;;;;;;8.80;8.23;;;;;;;-1.85;100.00;103441.09;5012592;28;20437;-44
2023/04/03 03:47:10;;;;;;;9.30;8.60;;;;;;;-1.86;100.00;103444.59;5012824;28;20456;-48
2023/04/03 03:49:38;;;;;;;8.73;7.90;;;;;;;-1.88;100.00;103443.81;5012959;28;20448;-46
2023/04/03 03:52:10;;;;;;;8.77;8.30;;;;;;;-1.89;100.00;103437.72;5012291;28;20457;-45
2023/04/03 03:54:37;;;;;;;9.17;8.37;;;;;;;-1.92;100.00;103435.22;5012173;28;20433;-46
2023/04/03 03:57:05;;;;;;;9.90;9.10;;;;;;;-1.93;100.00;103445.69;5012729;28;20445;-48
2023/04/03 03:59:33;;;;;;;8.70;7.87;;;;;;;-1.97;100.00;103444.13;5012821;28;20476;-45
2023/04/03 04:02:01;;;;;;;9.90;9.20;;;;;;;-1.99;100.00;103445.91;5011568;28;20507;-45
2023/04/03 04:04:28;;;;;;;9.53;8.23;;;;;;;-2.03;100.00;103447.75;5012786;28;20433;-48
2023/04/03 04:06:56;;;;;;;10.47;9.63;;;;;;;-2.04;100.00;103448.69;5012503;28;20448;-46
2023/04/03 04:09:25;;;;;;;9.37;8.60;;;;;;;-2.05;100.00;103451.34;5012708;28;21124;-48
2023/04/03 04:11:53;;;;;;;9.83;8.47;;;;;;;-2.05;100.00;103444.34;5011781;28;20433;-44
2023/04/03 04:14:21;;;;;;;10.73;9.00;;;;;;;-2.05;100.00;103449.56;5011126;28;20429;-47
2023/04/03 04:16:49;;;;;;;9.30;8.50;;;;;;;-2.06;100.00;103452.25;5012508;28;20453;-44
2023/04/03 04:19:16;;;;;;;9.43;8.77;;;;;;;-2.05;100.00;103452.19;5012367;28;21058;-46
2023/04/03 04:21:44;;;;;;;10.30;9.37;;;;;;;-2.02;100.00;103456.47;5011920;28;20495;-45
2023/04/03 04:24:12;;;;;;;10.47;9.67;;;;;;;-2.03;100.00;103455.59;5012320;28;20480;-45
2023/04/03 04:26:41;;;;;;;10.83;9.40;;;;;;;-2.01;100.00;103452.94;5012443;28;20442;-49
2023/04/03 04:29:09;;;;;;;12.03;10.97;;;;;;;-1.99;100.00;103454.59;5012440;28;20955;-47
2023/04/03 04:31:38;;;;;;;14.90;11.03;;;;;;;-1.99;100.00;103462.47;5011980;28;20433;-45
2023/04/03 04:34:05;;;;;;;10.50;9.70;;;;;;;-1.99;100.00;103472.06;5011585;28;20475;-48
2023/04/03 04:36:33;;;;;;;10.50;10.00;;;;;;;-2.00;100.00;103467.75;5012101;28;20449;-46
2023/04/03 04:39:01;;;;;;;12.10;11.20;;;;;;;-2.02;100.00;103467.78;5012170;28;20492;-43
2023/04/03 04:41:28;;;;;;;10.57;9.87;;;;;;;-2.03;100.00;103475.69;5012003;28;20469;-47
2023/04/03 04:43:58;;;;;;;10.93;10.13;;;;;;;-2.04;100.00;103474.84;5011635;28;20472;-45
2023/04/03 04:46:26;;;;;;;11.47;10.73;;;;;;;-2.03;100.00;103475.69;5012087;28;20453;-47
2023/04/03 04:48:53;;;;;;;11.03;10.30;;;;;;;-2.02;100.00;103473.00;5012092;28;20437;-47
2023/04/03 04:51:21;;;;;;;11.80;10.80;;;;;;;-2.01;100.00;103474.72;5011703;28;20429;-44
2023/04/03 04:53:49;;;;;;;10.77;9.97;;;;;;;-2.00;100.00;103476.41;5011535;28;20475;-48
2023/04/03 04:56:17;;;;;;;11.73;10.93;;;;;;;-1.96;100.00;103487.66;5012269;28;20460;-45
2023/04/03 04:58:44;;;;;;;10.97;10.47;;;;;;;-1.93;100.00;103487.53;5011954;28;20523;-46
2023/04/03 05:01:13;;;;;;;11.80;10.97;;;;;;;-1.91;100.00;103485.75;5011828;28;20477;-47
2023/04/03 05:03:41;;;;;;;12.53;11.43;;;;;;;-1.87;100.00;103487.34;5011389;28;20460;-47
2023/04/03 05:06:09;;;;;;;11.23;10.33;;;;;;;-1.83;100.00;103495.06;5012609;28;20452;-46
2023/04/03 05:08:36;;;;;;;11.83;10.97;;;;;;;-1.78;100.00;103492.28;5016048;28;20818;-45
2023/04/03 05:11:04;;;;;;;12.40;11.33;;;;;;;-1.74;100.00;103488.66;5015860;28;20436;-45
2023/04/03 05:13:32;;;;;;;12.27;11.30;;;;;;;-1.53;100.00;103492.31;5015289;28;20468;-45
2023/04/03 05:16:00;;;;;;;12.10;11.40;;;;;;;-1.08;100.00;103489.88;5015662;28;20437;-43
2023/04/03 05:18:29;;;;;;;12.30;11.20;;;;;;;-0.62;100.00;103487.25;5015726;28;20839;-47
2023/04/03 05:20:57;;;;;;;11.93;10.93;;;;;;;-0.17;100.00;103495.13;5015685;28;20472;-45
2023/04/03 05:23:25;;;;;;;12.67;11.67;;;;;;;0.51;100.00;103493.16;5015119;28;20469;-51
2023/04/03 05:25:53;;;;;;;12.77;11.70;;;;;;;1.13;100.00;103501.88;5015516;28;20432;-47
2023/04/03 05:28:21;;;;;;;11.17;10.23;;;;;;;1.47;100.00;103502.88;5015663;28;20946;-52
2023/04/03 05:30:54;;;;;;;13.87;11.93;;;;;;;1.80;100.00;103494.34;5015519;28;20436;-46
2023/04/03 05:33:22;;;;;;;12.23;11.23;;;;;;;2.03;100.00;103502.81;5014529;28;20563;-47
2023/04/03 05:35:51;;;;;;;12.70;11.70;;;;;;;2.31;100.00;103499.72;5015618;28;20424;-48
2023/04/03 05:38:19;;;;;;;11.63;11.00;;;;;;;2.88;100.00;103493.25;5015792;28;20950;-46
2023/04/03 05:40:47;;;;;;;13.93;12.80;;;;;;;3.68;100.00;103491.53;5015497;28;20508;-51
2023/04/03 05:43:15;;;;;;;33.17;24.40;;;;;;;4.58;100.00;103494.25;5014672;28;20878;-50
2023/04/03 05:45:44;;;;;;;54.77;38.97;;;;;;;5.38;100.00;103495.44;5015537;28;20429;-47
2023/04/03 05:48:13;;;;;;;29.83;24.90;;;;;;;6.21;100.00;103493.66;5015404;28;20447;-45
2023/04/03 05:50:42;;;;;;;16.20;14.77;;;;;;;6.98;100.00;103481.25;5015134;28;20448;-45
2023/04/03 05:53:18;;;;;;;12.50;11.40;;;;;;;7.75;100.00;103477.50;5014643;28;20523;-48
2023/04/03 05:55:46;;;;;;;10.40;9.40;;;;;;;8.47;100.00;103471.19;5014920;28;20923;-48
2023/04/03 05:58:14;;;;;;;9.50;8.90;;;;;;;9.17;100.00;103473.72;5015167;28;20456;-45
2023/04/03 06:00:41;;;;;;;8.33;7.73;;;;;;;9.79;100.00;103480.19;5015100;28;20476;-46
2023/04/03 06:03:10;;;;;;;8.00;7.50;;;;;;;10.20;100.00;103474.13;5013846;28;20998;-44
2023/04/03 06:05:37;;;;;;;8.30;7.60;;;;;;;10.63;100.00;103478.53;5014965;28;20451;-47
2023/04/03 06:08:06;;;;;;;10.67;9.87;;;;;;;11.10;100.00;103470.78;5014804;28;20532;-48
2023/04/03 06:10:36;;;;;;;10.13;9.20;;;;;;;11.55;100.00;103478.38;5014651;28;20469;-48
2023/04/03 06:13:04;;;;;;;8.80;8.10;;;;;;;11.91;97.47;103466.25;5014216;28;20469;-44
2023/04/03 06:15:31;;;;;;;9.10;8.43;;;;;;;12.33;93.84;103473.03;5014651;28;20437;-44
2023/04/03 06:17:59;;;;;;;7.60;6.97;;;;;;;12.67;87.06;103468.03;5013916;28;20488;-44
2023/04/03 06:20:27;;;;;;;15.60;8.23;;;;;;;12.97;74.15;103480.34;5014606;28;20881;-48
2023/04/03 06:22:55;;;;;;;7.53;7.03;;;;;;;13.31;77.65;103476.16;5013840;28;20473;-45
2023/04/03 06:25:23;;;;;;;7.43;7.00;;;;;;;13.55;71.08;103479.16;5014766;28;20433;-44
2023/04/03 06:27:52;;;;;;;7.27;6.63;;;;;;;13.73;68.07;103490.75;5014606;28;20457;-44
2023/04/03 06:30:19;;;;;;;7.43;6.73;;;;;;;13.97;67.50;103484.81;5014568;28;20556;-45
2023/04/03 06:32:47;;;;;;;10.07;9.37;;;;;;;14.21;66.94;103492.25;5013877;28;20466;-46
2023/04/03 06:35:15;;;;;;;9.73;8.73;;;;;;;14.37;63.00;103495.94;5014321;28;20864;-46
2023/04/03 06:37:43;;;;;;;7.47;6.70;;;;;;;14.67;65.31;103489.28;5014137;28;20894;-49
2023/04/03 06:40:18;;;;;;;7.10;6.50;;;;;;;14.85;62.42;103489.25;5014389;28;20487;-46
2023/04/03 06:42:46;;;;;;;7.40;6.90;;;;;;;14.94;63.68;103491.81;5013696;28;20590;-45
2023/04/03 06:45:15;;;;;;;7.30;6.70;;;;;;;14.82;57.09;103498.47;5014159;28;20461;-47
2023/04/03 06:47:43;;;;;;;8.03;7.43;;;;;;;14.33;58.12;103491.91;5014096;28;20465;-46
2023/04/03 06:50:13;;;;;;;9.63;8.83;;;;;;;13.77;53.01;103488.59;5013898;28;20444;-47
2023/04/03 06:52:41;;;;;;;10.97;8.77;;;;;;;13.11;54.14;103496.00;5013736;28;20487;-45
2023/04/03 06:55:11;;;;;;;8.60;7.90;;;;;;;13.40;60.83;103493.19;5014022;28;20448;-46
2023/04/03 06:57:38;;;;;;;7.80;7.17;;;;;;;13.84;63.33;103495.06;5013809;28;20463;-47
2023/04/03 07:00:09;;;;;;;9.93;7.40;;;;;;;13.69;59.46;103501.91;5013912;28;20437;-46
2023/04/03 07:02:38;;;;;;;7.70;7.20;;;;;;;13.62;57.45;103501.66;5012759;28;21172;-48
2023/04/03 07:05:06;;;;;;;8.90;8.23;;;;;;;13.42;59.28;103499.25;5013721;28;21102;-44
2023/04/03 07:07:34;;;;;;;8.60;8.00;;;;;;;13.72;55.24;103496.25;5013454;28;20472;-45
2023/04/03 07:10:02;;;;;;;8.20;7.60;;;;;;;13.65;58.09;103503.22;5013568;28;20429;-46
2023/04/03 07:12:30;;;;;;;8.50;7.83;;;;;;;13.44;58.26;103498.09;5012949;28;20488;-47
2023/04/03 07:14:58;;;;;;;8.90;8.30;;;;;;;13.16;58.50;103501.75;5013459;28;20429;-47
2023/04/03 07:17:26;;;;;;;8.60;8.03;;;;;;;13.02;56.36;103510.25;5013473;28;20455;-47
2023/04/03 07:19:55;;;;;;;9.60;9.00;;;;;;;12.46;58.25;103508.34;5013767;28;20483;-46
2023/04/03 07:22:23;;;;;;;10.57;9.47;;;;;;;12.14;57.53;103505.13;5012868;28;20963;-46
2023/04/03 07:24:51;;;;;;;9.97;9.27;;;;;;;11.83;60.19;103506.19;5013494;28;20479;-48
2023/04/03 07:27:19;;;;;;;9.47;8.63;;;;;;;11.45;60.96;103505.06;5013319;28;20457;-48
2023/04/03 07:29:47;;;;;;;10.70;9.60;;;;;;;10.69;62.67;103516.22;5012171;28;20441;-48
2023/04/03 07:32:16;;;;;;;10.67;9.77;;;;;;;10.26;66.54;103505.63;5012546;28;21038;-43
2023/04/03 07:34:44;;;;;;;10.27;9.23;;;;;;;10.06;71.10;103509.06;5013191;28;20954;-47
2023/04/03 07:37:13;;;;;;;8.47;7.83;;;;;;;8.92;73.52;103508.53;5013141;28;20515;-45
2023/04/03 07:39:41;;;;;;;9.30;8.50;;;;;;;8.49;82.67;103506.50;5013341;28;20433;-50
2023/04/03 07:42:09;;;;;;;9.30;8.33;;;;;;;8.25;90.55;103501.19;5012306;28;20468;-45
2023/04/03 07:44:37;;;;;;;9.70;8.80;;;;;;;8.30;92.12;103511.53;5013249;28;20785;-46
2023/04/03 07:47:05;;;;;;;9.10;8.30;;;;;;;8.39;94.81;103502.84;5012657;28;20514;-48
2023/04/03 07:49:34;;;;;;;8.17;7.57;;;;;;;8.73;95.80;103503.78;5012717;28;20445;-48
2023/04/03 07:52:02;;;;;;;9.30;8.40;;;;;;;8.72;91.64;103502.94;5012293;28;20460;-45
2023/04/03 07:54:31;;;;;;;9.53;8.83;;;;;;;8.96;93.42;103494.88;5012641;28;20445;-46
2023/04/03 07:56:59;;;;;;;10.53;9.60;;;;;;;9.17;91.84;103505.69;5012940;28;20905;-48
2023/04/03 07:59:26;;;;;;;9.40;8.90;;;;;;;9.48;90.55;103501.41;5012777;28;20437;-48
2023/04/03 08:01:54;;;;;;;9.50;8.90;;;;;;;9.54;86.16;103503.59;5012002;28;20477;-46
2023/04/03 08:04:21;;;;;;;10.30;9.50;;;;;;;9.15;88.53;103512.91;5012689;28;20461;-49
2023/04/03 08:06:49;;;;;;;9.90;9.10;;;;;;;8.90;89.88;103509.50;5012631;28;20484;-45
2023/04/03 08:09:18;;;;;;;11.53;10.60;;;;;;;8.85;92.88;103508.16;5012278;28;20433;-47
2023/04/03 08:11:47;;;;;;;11.53;10.70;;;;;;;8.60;94.81;103508.38;5012108;28;20425;-48
2023/04/03 08:14:18;;;;;;;12.43;11.33;;;;;;;8.49;98.07;103509.16;5012651;28;20433;-50
2023/04/03 08:16:48;;;;;;;10.87;9.97;;;;;;;8.12;100.00;103515.50;5012550;28;20445;-52
2023/04/03 08:19:17;;;;;;;11.07;10.03;;;;;;;7.87;100.00;103507.63;5012441;28;20430;-51
2023/04/03 08:21:53;;;;;;;10.67;9.97;;;;;;;7.44;100.00;103518.66;5011765;28;20475;-45
2023/04/03 08:24:21;;;;;;;10.73;10.03;;;;;;;7.57;100.00;103510.69;5012447;28;20847;-46
2023/04/03 08:26:50;;;;;;;10.50;9.80;;;;;;;7.55;100.00;103513.47;5012372;28;20455;-49
2023/04/03 08:29:17;;;;;;;10.73;9.83;;;;;;;7.14;100.00;103508.41;5012391;28;20495;-48
2023/04/03 08:31:46;;;;;;;11.83;10.43;;;;;;;6.64;100.00;103527.81;5011625;28;20515;-45
2023/04/03 08:34:14;;;;;;;10.83;10.03;;;;;;;6.15;100.00;103516.13;5012062;28;20800;-50
2023/04/03 08:36:42;;;;;;;10.30;9.50;;;;;;;6.23;100.00;103516.47;5012229;28;20483;-47
2023/04/03 08:39:10;;;;;;;9.70;8.80;;;;;;;5.86;100.00;103510.03;5012205;28;20510;-50
2023/04/03 08:41:40;;;;;;;9.70;9.00;;;;;;;5.72;100.00;103518.00;5011438;28;20479;-47
2023/04/03 08:44:19;;;;;;;10.23;9.13;;;;;;;5.56;100.00;103517.25;5011673;28;20442;-46
2023/04/03 08:47:11;;;;;;;10.17;9.20;;;;;;;5.44;100.00;103515.38;5011737;28;20445;-44
2023/04/03 08:49:46;;;;;;;9.73;9.00;;;;;;;5.44;100.00;103508.28;5011937;28;20476;-47
2023/04/03 08:52:19;;;;;;;11.00;10.10;;;;;;;5.37;100.00;103508.78;5011343;28;20488;-44
2023/04/03 08:54:51;;;;;;;11.50;10.10;;;;;;;5.76;100.00;103518.66;5011948;28;20441;-46
2023/04/03 08:57:27;;;;;;;11.80;10.40;;;;;;;6.16;100.00;103516.94;5012039;28;20453;-47
2023/04/03 08:59:58;;;;;;;8.70;8.20;;;;;;;6.51;100.00;103518.13;5012036;28;20440;-51
2023/04/03 09:02:32;;;;;;;11.43;10.47;;;;;;;6.83;100.00;103516.81;5011287;28;20465;-46
2023/04/03 09:05:02;;;;;;;10.77;9.80;;;;;;;7.40;100.00;103511.03;5011881;28;20460;-48
2023/04/03 09:07:37;;;;;;;10.27;9.53;;;;;;;7.80;100.00;103504.56;5011630;28;20831;-46
2023/04/03 09:10:06;;;;;;;13.60;9.97;;;;;;;8.17;100.00;103511.53;5012036;28;20500;-45
2023/04/03 09:12:39;;;;;;;9.43;8.83;;;;;;;8.26;100.00;103504.69;5011333;28;20469;-48
2023/04/03 09:15:16;;;;;;;10.10;9.40;;;;;;;8.39;100.00;103502.00;5012171;28;20464;-45
2023/04/03 09:18:00;;;;;;;9.47;8.70;;;;;;;8.18;100.00;103510.56;5011507;28;20460;-49
2023/04/03 09:20:39;;;;;;;9.80;8.90;;;;;;;8.33;100.00;103512.09;5011810;28;20495;-48
2023/04/03 09:23:18;;;;;;;9.17;8.57;;;;;;;8.13;100.00;103509.22;5010889;28;21056;-48
2023/04/03 09:25:46;;;;;;;8.97;8.17;;;;;;;7.69;100.00;103513.31;5011661;28;20534;-45
2023/04/03 09:28:13;;;;;;;9.50;8.60;;;;;;;7.70;100.00;103511.50;5011681;28;20802;-45
2023/04/03 09:30:42;;;;;;;9.43;8.60;;;;;;;7.65;100.00;103510.97;5011570;28;20433;-44
2023/04/03 09:33:11;;;;;;;11.17;10.27;;;;;;;7.98;100.00;103508.53;5011537;28;20461;-44
2023/04/03 09:35:41;;;;;;;10.73;10.03;;;;;;;7.58;100.00;103512.41;5014259;28;20927;-45
2023/04/03 09:38:22;;;;;;;10.10;9.33;;;;;;;7.61;100.00;103521.00;5013812;28;20876;-47
2023/04/03 09:40:52;;;;;;;10.03;9.43;;;;;;;7.88;100.00;103519.97;5013554;28;20562;-47
2023/04/03 09:43:29;;;;;;;10.50;9.50;;;;;;;8.05;100.00;103511.59;5013048;28;20564;-46
2023/04/03 09:46:18;;;;;;;9.50;9.00;;;;;;;8.11;100.00;103506.69;5013806;28;20999;-46
2023/04/03 09:48:53;;;;;;;8.70;8.27;;;;;;;8.28;100.00;103506.28;5013876;28;20437;-45
2023/04/03 09:51:35;;;;;;;8.77;8.37;;;;;;;8.34;100.00;103497.88;5012978;28;20939;-46
2023/04/03 09:54:41;;;;;;;9.77;8.83;;;;;;;7.93;100.00;103497.41;5015208;28;20534;-47
2023/04/03 09:57:13;;;;;;;8.70;8.20;;;;;;;7.79;100.00;103492.25;5017056;28;20465;-48
2023/04/03 09:59:46;;;;;;;9.23;8.30;;;;;;;7.87;100.00;103492.53;5017120;28;20425;-47
2023/04/03 10:02:33;;;;;;;9.60;8.80;;;;;;;7.80;100.00;103485.97;5016716;28;20472;-46
2023/04/03 10:05:01;;;;;;;9.40;8.70;;;;;;;7.70;100.00;103488.47;5017356;28;20428;-46
2023/04/03 10:07:35;;;;;;;8.57;8.00;;;;;;;7.63;100.00;103483.69;5016643;28;20985;-47
2023/04/03 10:10:18;;;;;;;9.10;8.20;;;;;;;7.50;100.00;103477.56;5016867;28;20429;-45
2023/04/03 10:12:45;;;;;;;7.50;7.20;;;;;;;7.53;100.00;103483.50;5016197;28;20465;-46
2023/04/03 10:15:15;;;;;;;8.27;7.67;;;;;;;8.04;100.00;103470.88;5017323;28;20437;-46
2023/04/03 10:17:55;;;;;;;9.10;8.43;;;;;;;8.09;100.00;103470.56;5016609;28;20453;-47
2023/04/03 10:20:33;;;;;;;8.63;7.83;;;;;;;7.72;100.00;103465.28;5016555;28;20444;-47
2023/04/03 10:23:13;;;;;;;8.30;7.83;;;;;;;7.74;100.00;103467.81;5016161;28;20567;-46
2023/04/03 10:25:44;;;;;;;8.03;7.43;;;;;;;8.13;100.00;103472.84;5016826;28;20436;-46
2023/04/03 10:28:20;;;;;;;10.83;7.40;;;;;;;8.23;98.82;103468.56;5017083;28;20429;-45
2023/04/03 10:30:55;;;;;;;8.27;7.57;;;;;;;8.41;96.46;103466.34;5016707;28;20437;-45
2023/04/03 10:33:38;;;;;;;6.77;6.37;;;;;;;8.84;91.85;103470.06;5015909;28;20483;-44
2023/04/03 10:36:18;;;;;;;8.00;7.50;;;;;;;8.88;89.47;103468.00;5016195;28;20823;-47
2023/04/03 10:38:56;;;;;;;7.67;7.03;;;;;;;8.50;84.32;103459.47;5016247;28;20441;-45
2023/04/03 10:41:32;;;;;;;9.83;8.90;;;;;;;8.54;83.85;103460.94;5016000;28;20464;-48
2023/04/03 10:44:14;;;;;;;8.97;8.30;;;;;;;8.89;86.42;103454.59;5015521;28;20480;-44
2023/04/03 10:46:48;;;;;;;7.00;6.60;;;;;;;8.86;81.76;103462.81;5016039;28;20851;-44
2023/04/03 10:49:31;;;;;;;7.07;6.57;;;;;;;8.85;82.38;103460.25;5016012;28;20437;-49
2023/04/03 10:52:07;;;;;;;6.60;6.20;;;;;;;9.02;79.98;103459.78;5015343;28;20576;-46
2023/04/03 10:54:40;;;;;;;6.50;6.10;;;;;;;9.17;78.27;103466.56;5015994;28;20446;-50
2023/04/03 10:57:11;;;;;;;6.40;6.00;;;;;;;9.41;77.84;103448.63;5015476;28;20464;-46
2023/04/03 10:59:44;;;;;;;5.77;5.37;;;;;;;8.98;75.46;103466.34;5015489;28;20747;-44
2023/04/03 11:02:21;;;;;;;6.00;5.60;;;;;;;9.13;78.92;103451.81;5014426;28;20551;-49
2023/04/03 11:04:54;;;;;;;6.17;5.77;;;;;;;9.29;74.19;103449.63;5015517;28;20468;-45
2023/04/03 11:07:26;;;;;;;10.77;5.87;;;;;;;9.35;76.47;103453.59;5015398;28;20463;-48
2023/04/03 11:09:59;;;;;;;5.40;5.10;;;;;;;9.40;71.74;103446.97;5015369;28;20898;-46
2023/04/03 11:12:34;;;;;;;5.23;4.93;;;;;;;9.32;69.88;103438.72;5014488;28;20457;-47
2023/04/03 11:15:03;;;;;;;7.30;4.73;;;;;;;9.12;63.99;103444.78;5015451;28;20431;-45
2023/04/03 11:17:36;;;;;;;5.30;4.90;;;;;;;9.18;66.49;103435.47;5015018;28;20459;-45
2023/04/03 11:20:16;;;;;;;5.17;4.80;;;;;;;9.16;64.05;103435.59;5014683;28;20524;-47
2023/04/03 11:22:48;;;;;;;4.87;4.57;;;;;;;9.27;63.35;103440.06;5013888;28;20849;-47
2023/04/03 11:25:22;;;;;;;5.90;4.70;;;;;;;9.28;63.04;103436.44;5015343;28;20433;-49
2023/04/03 11:27:55;;;;;;;5.30;4.90;;;;;;;9.08;67.02;103431.84;5014902;28;20502;-45
2023/04/03 11:30:28;;;;;;;4.90;4.60;;;;;;;8.87;64.76;103426.38;5015363;28;20440;-45
2023/04/03 11:33:20;;;;;;;6.60;4.43;;;;;;;8.54;66.03;103427.19;5012544;28;20472;-46